createdAt,value
2022-10-17T00:01:52.507Z,15.44
2022-10-17T00:03:55.327Z,15.41
2022-10-17T00:05:58.489Z,15.42
2022-10-17T00:08:01.388Z,15.41
2022-10-17T00:10:04.847Z,15.40
2022-10-17T00:12:07.626Z,15.40
2022-10-17T00:14:10.406Z,15.40
2022-10-17T00:16:13.181Z,15.41
2022-10-17T00:18:17.359Z,15.39
2022-10-17T00:20:20.558Z,15.39
2022-10-17T00:22:23.382Z,15.40
2022-10-17T00:24:26.182Z,15.40
2022-10-17T00:26:29.596Z,15.37
2022-10-17T00:28:33.717Z,15.36
2022-10-17T00:30:37.754Z,15.39
2022-10-17T00:32:40.657Z,15.40
2022-10-17T00:34:44.996Z,15.40
2022-10-17T00:36:47.833Z,15.39
2022-10-17T00:38:54.118Z,15.40
2022-10-17T00:40:56.951Z,15.41
2022-10-17T00:42:59.729Z,15.40
2022-10-17T00:45:13.538Z,15.41
2022-10-17T00:47:22.035Z,15.40
2022-10-17T00:49:27.161Z,15.39
2022-10-17T00:51:38.038Z,15.38
2022-10-17T00:53:41.475Z,15.33
2022-10-17T00:55:49.422Z,15.27
2022-10-17T00:57:53.807Z,15.24
2022-10-17T00:59:58.900Z,15.21
2022-10-17T01:02:04.810Z,15.22
2022-10-17T01:04:07.633Z,15.22
2022-10-17T01:06:10.514Z,15.23
2022-10-17T01:08:15.364Z,15.26
2022-10-17T01:10:19.000Z,15.24
2022-10-17T01:12:26.203Z,15.26
2022-10-17T01:14:33.898Z,15.24
2022-10-17T01:16:48.816Z,15.25
2022-10-17T01:19:00.995Z,15.22
2022-10-17T01:21:33.720Z,15.22
2022-10-17T01:24:15.572Z,15.18
2022-10-17T01:26:27.241Z,15.18
2022-10-17T01:29:02.073Z,15.16
2022-10-17T01:31:11.804Z,15.11
2022-10-17T01:33:18.171Z,15.11
2022-10-17T01:35:27.393Z,15.11
2022-10-17T01:37:35.065Z,15.09
2022-10-17T01:39:46.981Z,15.10
2022-10-17T01:41:56.971Z,15.09
2022-10-17T01:44:04.635Z,15.09
2022-10-17T01:46:14.130Z,15.10
2022-10-17T01:48:20.147Z,15.07
2022-10-17T01:50:29.495Z,15.07
2022-10-17T01:52:39.609Z,15.05
2022-10-17T01:54:45.528Z,15.03
2022-10-17T01:56:50.668Z,15.03
2022-10-17T01:58:58.131Z,14.98
2022-10-17T02:01:04.061Z,14.97
2022-10-17T02:03:13.177Z,14.97
2022-10-17T02:05:18.413Z,14.96
2022-10-17T02:07:21.180Z,14.96
2022-10-17T02:09:26.361Z,14.97
2022-10-17T02:11:29.390Z,14.97
2022-10-17T02:13:46.721Z,15.00
2022-10-17T02:16:05.761Z,14.99
2022-10-17T02:18:23.664Z,14.97
2022-10-17T02:20:32.704Z,14.95
2022-10-17T02:22:42.992Z,14.97
2022-10-17T02:24:53.495Z,14.95
2022-10-17T02:27:05.493Z,14.94
2022-10-17T02:29:14.591Z,14.93
2022-10-17T02:31:24.966Z,14.92
2022-10-17T02:33:32.929Z,14.92
2022-10-17T02:35:41.425Z,14.91
2022-10-17T02:37:48.282Z,14.88
2022-10-17T02:39:52.725Z,14.90
2022-10-17T02:41:59.889Z,14.90
2022-10-17T02:44:05.286Z,14.90
2022-10-17T02:46:08.836Z,14.87
2022-10-17T02:48:17.458Z,14.90
2022-10-17T02:50:25.725Z,14.88
2022-10-17T02:52:33.539Z,14.88
2022-10-17T02:54:41.710Z,14.87
2022-10-17T02:56:51.412Z,14.87
2022-10-17T02:58:58.555Z,14.84
2022-10-17T03:01:01.916Z,14.83
2022-10-17T03:03:20.324Z,14.82
2022-10-17T03:05:26.441Z,14.80
2022-10-17T03:07:29.219Z,14.80
2022-10-17T03:09:32.189Z,14.79
2022-10-17T03:11:35.009Z,14.78
2022-10-17T03:13:39.844Z,14.79
2022-10-17T03:15:43.611Z,14.77
2022-10-17T03:19:54.810Z,14.74
2022-10-17T03:21:58.923Z,14.76
2022-10-17T03:24:01.695Z,14.73
2022-10-17T03:26:05.123Z,14.74
2022-10-17T03:28:10.692Z,14.74
2022-10-17T03:30:13.466Z,14.74
2022-10-17T03:32:16.258Z,14.74
2022-10-17T03:34:19.398Z,14.75
2022-10-17T03:36:22.773Z,14.74
2022-10-17T03:38:27.496Z,14.76
2022-10-17T03:40:30.306Z,14.75
2022-10-17T03:42:33.294Z,14.75
2022-10-17T03:44:36.421Z,14.76
2022-10-17T03:46:40.336Z,14.74
2022-10-17T03:48:43.215Z,14.75
2022-10-17T03:50:46.057Z,14.69
2022-10-17T03:52:50.066Z,14.69
2022-10-17T03:54:54.280Z,14.72
2022-10-17T03:58:59.814Z,14.70
2022-10-17T04:01:05.480Z,14.74
2022-10-17T04:03:08.263Z,14.74
2022-10-17T04:05:11.015Z,14.76
2022-10-17T04:07:13.848Z,14.76
2022-10-17T04:09:19.852Z,14.74
2022-10-17T04:11:33.803Z,14.74
2022-10-17T04:13:38.578Z,14.75
2022-10-17T04:15:42.249Z,14.74
2022-10-17T04:17:45.119Z,14.73
2022-10-17T04:19:47.877Z,14.71
2022-10-17T04:21:52.835Z,14.68
2022-10-17T04:23:58.264Z,14.71
2022-10-17T04:26:17.116Z,14.74
2022-10-17T04:28:21.352Z,14.78
2022-10-17T04:30:25.008Z,14.80
2022-10-17T04:32:28.013Z,14.78
2022-10-17T04:34:38.245Z,14.77
2022-10-17T04:36:41.327Z,14.77
2022-10-17T04:38:44.856Z,14.79
2022-10-17T04:40:47.685Z,14.78
2022-10-17T04:42:51.570Z,14.79
2022-10-17T04:44:58.540Z,14.76
2022-10-17T04:47:02.645Z,14.77
2022-10-17T04:49:05.629Z,14.76
2022-10-17T04:51:12.295Z,14.72
2022-10-17T04:53:25.569Z,14.69
2022-10-17T04:55:28.423Z,14.66
2022-10-17T04:57:31.276Z,14.67
2022-10-17T04:59:43.339Z,14.64
2022-10-17T05:02:19.754Z,14.60
2022-10-17T05:04:24.829Z,14.60
2022-10-17T05:06:29.140Z,14.58
2022-10-17T05:08:50.469Z,14.56
2022-10-17T05:10:54.802Z,14.43
2022-10-17T05:12:57.575Z,14.47
2022-10-17T05:15:04.897Z,14.50
2022-10-17T05:17:07.834Z,14.50
2022-10-17T05:19:12.935Z,14.48
2022-10-17T05:21:21.961Z,14.47
2022-10-17T05:23:24.819Z,14.48
2022-10-17T05:25:27.622Z,14.50
2022-10-17T05:27:31.079Z,14.48
2022-10-17T05:29:35.242Z,14.49
2022-10-17T05:31:49.038Z,14.28
2022-10-17T05:33:51.843Z,14.31
2022-10-17T05:35:55.914Z,14.41
2022-10-17T05:37:59.961Z,14.34
2022-10-17T05:40:03.464Z,14.30
2022-10-17T05:42:08.151Z,14.30
2022-10-17T05:44:11.913Z,14.26
2022-10-17T05:46:18.522Z,14.25
2022-10-17T05:48:21.662Z,14.27
2022-10-17T05:50:25.187Z,14.32
2022-10-17T05:52:49.119Z,14.31
2022-10-17T05:54:52.335Z,14.29
2022-10-17T05:56:56.838Z,14.29
2022-10-17T05:59:03.874Z,14.30
2022-10-17T06:01:25.855Z,14.31
2022-10-17T06:03:29.346Z,14.23
2022-10-17T06:05:32.248Z,14.23
2022-10-17T06:07:36.464Z,14.30
2022-10-17T06:09:41.899Z,14.26
2022-10-17T06:11:44.723Z,14.23
2022-10-17T06:13:48.124Z,14.25
2022-10-17T06:15:57.355Z,14.28
2022-10-17T06:18:00.133Z,14.26
2022-10-17T06:20:03.052Z,14.29
2022-10-17T06:22:05.905Z,14.34
2022-10-17T06:24:08.802Z,14.39
2022-10-17T06:26:14.731Z,14.38
2022-10-17T06:28:17.974Z,14.36
2022-10-17T06:30:20.816Z,14.40
2022-10-17T06:32:23.611Z,14.43
2022-10-17T06:34:26.821Z,14.46
2022-10-17T06:36:30.152Z,14.47
2022-10-17T06:38:33.316Z,14.51
2022-10-17T06:40:36.464Z,14.55
2022-10-17T06:42:41.131Z,14.59
2022-10-17T06:44:58.775Z,14.61
2022-10-17T06:47:15.433Z,14.62
2022-10-17T06:49:20.769Z,14.65
2022-10-17T06:51:48.954Z,14.70
2022-10-17T06:53:54.823Z,14.75
2022-10-17T06:56:29.948Z,14.75
2022-10-17T06:58:47.637Z,14.79
2022-10-17T07:03:16.478Z,14.76
2022-10-17T07:05:19.715Z,14.80
2022-10-17T07:07:22.873Z,14.83
2022-10-17T07:09:26.725Z,14.88
2022-10-17T07:11:29.897Z,14.86
2022-10-17T07:13:36.742Z,14.82
2022-10-17T07:15:43.229Z,14.79
2022-10-17T07:17:49.412Z,14.84
2022-10-17T07:19:52.802Z,14.89
2022-10-17T07:21:55.965Z,14.99
2022-10-17T07:23:58.810Z,15.02
2022-10-17T07:26:03.001Z,15.07
2022-10-17T07:28:05.937Z,15.08
2022-10-17T07:30:10.282Z,15.11
2022-10-17T07:32:16.693Z,15.14
2022-10-17T07:34:19.536Z,15.21
2022-10-17T07:36:22.342Z,15.30
2022-10-17T07:38:25.879Z,15.35
2022-10-17T07:40:28.656Z,15.33
2022-10-17T07:42:31.634Z,15.36
2022-10-17T07:44:35.400Z,15.44
2022-10-17T07:46:38.297Z,15.52
2022-10-17T07:48:43.046Z,15.47
2022-10-17T07:50:46.058Z,15.51
2022-10-17T07:52:48.903Z,15.62
2022-10-17T07:54:51.683Z,15.65
2022-10-17T07:56:54.411Z,15.67
2022-10-17T07:58:59.822Z,15.67
2022-10-17T08:01:07.485Z,15.73
2022-10-17T08:03:12.318Z,15.77
2022-10-17T08:05:16.571Z,15.83
2022-10-17T08:07:22.974Z,15.91
2022-10-17T08:09:28.189Z,15.98
2022-10-17T08:11:30.968Z,16.05
2022-10-17T08:13:34.116Z,16.09
2022-10-17T08:15:38.679Z,16.22
2022-10-17T08:17:41.283Z,16.16
2022-10-17T08:19:44.010Z,16.20
2022-10-17T08:21:49.827Z,16.24
2022-10-17T08:23:52.676Z,16.33
2022-10-17T08:25:55.452Z,16.38
2022-10-17T08:27:59.095Z,16.48
2022-10-17T08:30:01.923Z,16.52
2022-10-17T08:32:07.653Z,16.56
2022-10-17T08:34:11.809Z,16.64
2022-10-17T08:36:16.210Z,16.70
2022-10-17T08:38:21.105Z,16.81
2022-10-17T08:40:28.093Z,16.92
2022-10-17T08:42:45.007Z,17.02
2022-10-17T08:44:58.538Z,16.99
2022-10-17T08:47:05.159Z,17.06
2022-10-17T08:49:15.918Z,17.08
2022-10-17T08:51:24.046Z,17.10
2022-10-17T08:53:33.943Z,17.10
2022-10-17T08:55:42.762Z,17.19
2022-10-17T08:57:49.362Z,17.26
2022-10-17T08:59:54.408Z,17.21
2022-10-17T09:02:09.575Z,17.37
2022-10-17T09:04:27.569Z,17.23
2022-10-17T09:06:34.170Z,17.23
2022-10-17T09:08:49.054Z,17.34
2022-10-17T09:10:57.697Z,17.52
2022-10-17T09:13:15.194Z,17.59
2022-10-17T09:15:38.538Z,17.60
2022-10-17T09:17:52.073Z,17.60
2022-10-17T09:20:03.247Z,17.76
2022-10-17T09:22:10.414Z,17.68
2022-10-17T09:24:19.159Z,17.72
2022-10-17T09:26:22.266Z,17.74
2022-10-17T09:28:29.692Z,17.86
2022-10-17T09:30:46.782Z,17.78
2022-10-17T09:32:49.964Z,17.88
2022-10-17T09:34:54.115Z,17.89
2022-10-17T09:36:59.574Z,17.95
2022-10-17T09:39:05.549Z,18.03
2022-10-17T09:41:42.771Z,18.12
2022-10-17T09:43:40.899Z,18.19
2022-10-17T09:45:51.762Z,18.24
2022-10-17T09:48:02.395Z,18.39
2022-10-17T09:50:23.742Z,18.42
2022-10-17T09:52:31.675Z,18.51
2022-10-17T09:54:42.555Z,18.60
2022-10-17T09:57:04.618Z,18.75
2022-10-17T09:59:11.523Z,18.75
2022-10-17T10:01:22.858Z,18.83
2022-10-17T10:03:27.964Z,18.89
2022-10-17T10:05:30.726Z,18.99
2022-10-17T10:07:36.744Z,18.98
2022-10-17T10:09:40.407Z,19.04
2022-10-17T10:11:50.426Z,19.07
2022-10-17T10:13:54.548Z,19.22
2022-10-17T10:16:16.020Z,19.30
2022-10-17T10:18:33.743Z,19.37
2022-10-17T10:20:38.355Z,19.41
2022-10-17T10:22:41.560Z,19.39
2022-10-17T10:24:44.524Z,19.49
2022-10-17T10:26:48.709Z,19.59
2022-10-17T10:28:56.674Z,19.64
2022-10-17T10:31:02.259Z,19.68
2022-10-17T10:33:05.098Z,19.66
2022-10-17T10:35:18.841Z,19.74
2022-10-17T10:37:24.349Z,19.75
2022-10-17T10:39:33.139Z,19.85
2022-10-17T10:41:48.906Z,19.77
2022-10-17T10:43:53.113Z,19.85
2022-10-17T10:45:57.309Z,19.91
2022-10-17T10:48:02.369Z,20.06
2022-10-17T10:50:18.956Z,20.06
2022-10-17T10:52:31.623Z,20.04
2022-10-17T10:54:40.729Z,20.04
2022-10-17T10:56:49.858Z,20.17
2022-10-17T10:58:58.259Z,20.23
2022-10-17T11:01:06.700Z,20.26
2022-10-17T11:03:15.903Z,20.30
2022-10-17T11:05:25.092Z,20.35
2022-10-17T11:07:33.098Z,20.35
2022-10-17T11:09:46.351Z,20.43
2022-10-17T11:11:55.716Z,20.46
2022-10-17T11:14:04.472Z,20.53
2022-10-17T11:16:27.204Z,20.63
2022-10-17T11:18:36.733Z,20.63
2022-10-17T11:20:45.862Z,20.72
2022-10-17T11:22:50.308Z,20.83
2022-10-17T11:24:57.088Z,20.76
2022-10-17T11:27:02.511Z,20.82
2022-10-17T11:29:08.091Z,20.95
2022-10-17T11:31:15.853Z,21.00
2022-10-17T11:33:28.246Z,21.03
2022-10-17T11:35:35.121Z,21.08
2022-10-17T11:37:42.029Z,21.21
2022-10-17T11:39:51.382Z,21.26
2022-10-17T11:41:58.840Z,21.19
2022-10-17T11:44:08.731Z,21.25
2022-10-17T11:46:18.886Z,21.35
2022-10-17T11:48:25.872Z,21.40
2022-10-17T11:53:00.254Z,21.48
2022-10-17T11:55:09.615Z,21.52
2022-10-17T11:57:37.128Z,21.58
2022-10-17T11:59:55.201Z,21.69
2022-10-17T12:02:05.885Z,21.62
2022-10-17T12:04:27.599Z,21.74
2022-10-17T12:06:45.135Z,21.65
2022-10-17T12:08:54.589Z,21.75
2022-10-17T12:11:01.227Z,21.75
2022-10-17T12:13:42.158Z,21.79
2022-10-17T12:15:46.707Z,21.86
2022-10-17T12:17:56.409Z,21.93
2022-10-17T12:20:27.223Z,22.04
2022-10-17T12:22:30.031Z,21.99
2022-10-17T12:24:40.998Z,22.04
2022-10-17T12:26:43.939Z,22.22
2022-10-17T12:28:48.790Z,22.07
2022-10-17T12:30:55.160Z,22.16
2022-10-17T12:33:07.470Z,22.08
2022-10-17T12:35:21.713Z,22.17
2022-10-17T12:38:01.449Z,22.22
2022-10-17T12:40:05.010Z,22.18
2022-10-17T12:42:46.482Z,22.22
2022-10-17T12:44:51.211Z,22.38
2022-10-17T12:46:57.560Z,22.44
2022-10-17T12:49:05.970Z,22.48
2022-10-17T12:53:42.790Z,22.52
2022-10-17T12:55:45.534Z,22.46
2022-10-17T12:57:54.395Z,22.35
2022-10-17T12:59:58.703Z,22.41
2022-10-17T13:02:02.897Z,22.43
2022-10-17T13:04:11.678Z,22.49
2022-10-17T13:06:21.562Z,22.58
2022-10-17T13:08:26.951Z,22.59
2022-10-17T13:10:32.129Z,22.63
2022-10-17T13:12:41.244Z,22.66
2022-10-17T13:14:46.969Z,22.70
2022-10-17T13:16:54.832Z,22.69
2022-10-17T13:18:58.363Z,22.69
2022-10-17T13:21:06.348Z,22.70
2022-10-17T13:23:23.712Z,22.69
2022-10-17T13:25:28.439Z,22.66
2022-10-17T13:27:32.974Z,22.62
2022-10-17T13:29:35.759Z,22.69
2022-10-17T13:31:40.508Z,22.66
2022-10-17T13:33:43.528Z,22.71
2022-10-17T13:35:59.948Z,22.61
2022-10-17T13:38:07.754Z,22.51
2022-10-17T13:40:48.031Z,22.49
2022-10-17T13:42:42.352Z,22.46
2022-10-17T13:44:45.271Z,22.50
2022-10-17T13:46:48.874Z,22.57
2022-10-17T13:48:51.793Z,22.53
2022-10-17T13:51:00.327Z,22.56
2022-10-17T13:53:18.758Z,22.51
2022-10-17T13:55:22.047Z,22.55
2022-10-17T13:57:26.566Z,22.59
2022-10-17T13:59:33.318Z,22.63
2022-10-17T14:01:38.569Z,22.62
2022-10-17T14:03:48.540Z,22.56
2022-10-17T14:06:23.516Z,22.57
2022-10-17T14:08:27.906Z,22.60
2022-10-17T14:10:32.829Z,22.53
2022-10-17T14:12:35.771Z,22.51
2022-10-17T14:15:05.192Z,22.51
2022-10-17T14:17:02.529Z,22.45
2022-10-17T14:19:06.352Z,22.43
2022-10-17T14:23:36.515Z,22.31
2022-10-17T14:25:40.900Z,22.24
2022-10-17T14:27:55.312Z,22.17
2022-10-17T14:30:02.560Z,22.11
2022-10-17T14:32:09.116Z,22.08
2022-10-17T14:34:22.994Z,22.04
2022-10-17T14:36:35.533Z,22.07
2022-10-17T14:38:40.193Z,22.15
2022-10-17T14:40:50.203Z,22.00
2022-10-17T14:42:55.256Z,21.95
2022-10-17T14:45:06.024Z,21.94
2022-10-17T14:47:42.338Z,21.97
2022-10-17T14:49:41.800Z,21.90
2022-10-17T14:52:18.853Z,21.91
2022-10-17T14:54:26.781Z,21.87
2022-10-17T14:56:39.898Z,21.87
2022-10-17T14:58:42.644Z,21.85
2022-10-17T15:00:47.725Z,21.88
2022-10-17T15:02:52.339Z,21.87
2022-10-17T15:04:55.709Z,21.88
2022-10-17T15:06:58.482Z,21.87
2022-10-17T15:09:01.425Z,21.89
2022-10-17T15:11:05.838Z,21.89
2022-10-17T15:15:33.080Z,21.81
2022-10-17T15:17:35.828Z,21.78
2022-10-17T15:19:38.571Z,21.80
2022-10-17T15:21:46.167Z,21.80
2022-10-17T15:23:50.362Z,21.79
2022-10-17T15:25:53.114Z,21.77
2022-10-17T15:27:57.835Z,21.77
2022-10-17T15:30:00.619Z,21.80
2022-10-17T15:32:03.517Z,21.74
2022-10-17T15:34:06.322Z,21.72
2022-10-17T15:36:20.776Z,21.75
2022-10-17T15:38:23.765Z,21.72
2022-10-17T15:40:30.431Z,21.72
2022-10-17T15:42:33.526Z,21.69
2022-10-17T15:44:37.852Z,21.68
2022-10-17T15:46:42.276Z,21.64
2022-10-17T15:48:45.219Z,21.51
2022-10-17T15:50:47.957Z,21.55
2022-10-17T15:52:52.156Z,21.55
2022-10-17T15:54:57.343Z,21.55
2022-10-17T15:57:02.419Z,21.55
2022-10-17T15:59:06.502Z,21.53
2022-10-17T16:01:22.901Z,21.55
2022-10-17T16:03:25.699Z,21.50
2022-10-17T16:05:29.151Z,21.47
2022-10-17T16:09:37.134Z,21.40
2022-10-17T16:11:42.424Z,21.39
2022-10-17T16:13:50.761Z,21.30
2022-10-17T16:15:53.792Z,21.24
2022-10-17T16:18:01.646Z,21.22
2022-10-17T16:20:08.038Z,21.19
2022-10-17T16:22:20.848Z,21.17
2022-10-17T16:24:23.787Z,21.15
2022-10-17T16:26:26.543Z,21.14
2022-10-17T16:28:29.335Z,21.14
2022-10-17T16:30:32.854Z,21.14
2022-10-17T16:32:35.698Z,21.11
2022-10-17T16:34:39.802Z,21.11
2022-10-17T16:36:43.268Z,20.98
2022-10-17T16:38:46.507Z,21.00
2022-10-17T16:40:49.271Z,20.99
2022-10-17T16:42:52.028Z,20.98
2022-10-17T16:44:54.791Z,20.92
2022-10-17T16:46:57.972Z,20.89
2022-10-17T16:49:01.327Z,20.86
2022-10-17T16:51:05.716Z,20.84
2022-10-17T16:53:08.260Z,20.69
2022-10-17T16:55:11.804Z,20.69
2022-10-17T16:57:14.635Z,20.69
2022-10-17T16:59:17.384Z,20.67
2022-10-17T17:01:23.032Z,20.64
2022-10-17T17:03:26.776Z,20.59
2022-10-17T17:05:29.511Z,20.54
2022-10-17T17:07:33.933Z,20.53
2022-10-17T17:09:36.599Z,20.36
2022-10-17T17:11:39.565Z,20.34
2022-10-17T17:13:42.873Z,20.35
2022-10-17T17:17:55.478Z,20.27
2022-10-17T17:19:58.786Z,20.23
2022-10-17T17:22:01.561Z,20.20
2022-10-17T17:24:06.417Z,20.17
2022-10-17T17:26:11.734Z,20.13
2022-10-17T17:28:14.593Z,20.08
2022-10-17T17:30:17.806Z,20.03
2022-10-17T17:32:20.659Z,20.01
2022-10-17T17:34:23.585Z,19.98
2022-10-17T17:36:28.506Z,19.95
2022-10-17T17:38:32.589Z,19.91
2022-10-17T17:40:36.769Z,19.88
2022-10-17T17:42:39.520Z,19.85
2022-10-17T17:44:42.284Z,19.84
2022-10-17T17:46:45.856Z,19.83
2022-10-17T17:48:49.757Z,19.81
2022-10-17T17:50:52.537Z,19.78
2022-10-17T17:52:55.280Z,19.77
2022-10-17T17:54:57.977Z,19.76
2022-10-17T17:57:02.077Z,19.75
2022-10-17T17:59:05.109Z,19.74
2022-10-17T18:01:14.266Z,19.75
2022-10-17T18:03:17.860Z,19.73
2022-10-17T18:05:21.107Z,19.73
2022-10-17T18:07:24.093Z,19.70
2022-10-17T18:09:26.912Z,19.68
2022-10-17T18:11:30.426Z,19.63
2022-10-17T18:13:34.524Z,19.61
2022-10-17T18:15:38.357Z,19.59
2022-10-17T18:17:41.560Z,19.60
2022-10-17T18:19:44.320Z,19.61
2022-10-17T18:21:47.100Z,19.60
2022-10-17T18:23:51.604Z,19.60
2022-10-17T18:25:54.761Z,19.46
2022-10-17T18:27:57.516Z,19.48
2022-10-17T18:30:01.603Z,19.50
2022-10-17T18:32:04.724Z,19.47
2022-10-17T18:34:07.603Z,19.45
2022-10-17T18:36:12.909Z,19.44
2022-10-17T18:38:15.730Z,19.44
2022-10-17T18:40:18.754Z,19.45
2022-10-17T18:42:21.717Z,19.43
2022-10-17T18:44:24.704Z,19.43
2022-10-17T18:46:31.278Z,19.44
2022-10-17T18:48:34.839Z,19.38
2022-10-17T18:50:40.096Z,19.41
2022-10-17T18:52:44.450Z,19.35
2022-10-17T18:54:47.219Z,19.33
2022-10-17T18:56:52.001Z,19.33
2022-10-17T18:58:55.050Z,19.34
2022-10-17T19:01:03.275Z,19.35
2022-10-17T19:03:08.261Z,19.33
2022-10-17T19:05:11.100Z,19.33
2022-10-17T19:07:14.127Z,19.30
2022-10-17T19:09:17.218Z,19.28
2022-10-17T19:11:22.957Z,19.25
2022-10-17T19:13:25.693Z,19.19
2022-10-17T19:15:28.494Z,19.19
2022-10-17T19:17:31.566Z,19.17
2022-10-17T19:19:35.933Z,19.16
2022-10-17T19:21:39.132Z,19.11
2022-10-17T19:23:42.071Z,19.11
2022-10-17T19:25:44.793Z,19.11
2022-10-17T19:27:47.667Z,19.08
2022-10-17T19:29:50.405Z,19.06
2022-10-17T19:31:53.710Z,19.02
2022-10-17T19:33:57.301Z,18.99
2022-10-17T19:36:03.319Z,18.95
2022-10-17T19:38:06.072Z,18.92
2022-10-17T19:40:10.007Z,18.92
2022-10-17T19:42:12.734Z,18.86
2022-10-17T19:44:16.212Z,18.86
2022-10-17T19:46:20.752Z,18.82
2022-10-17T19:48:23.431Z,18.67
2022-10-17T19:50:26.188Z,18.71
2022-10-17T19:52:30.713Z,18.76
2022-10-17T19:54:33.765Z,18.77
2022-10-17T19:56:38.117Z,18.75
2022-10-17T19:58:45.417Z,18.73
2022-10-17T20:00:48.642Z,18.72
2022-10-17T20:02:51.497Z,18.72
2022-10-17T20:05:00.165Z,18.73
2022-10-17T20:07:16.550Z,18.71
2022-10-17T20:09:20.842Z,18.72
2022-10-17T20:11:25.495Z,18.70
2022-10-17T20:13:28.236Z,18.65
2022-10-17T20:15:31.081Z,18.65
2022-10-17T20:19:37.614Z,18.63
2022-10-17T20:21:40.332Z,18.63
2022-10-17T20:23:43.697Z,18.61
2022-10-17T20:25:50.471Z,18.59
2022-10-17T20:27:56.457Z,18.55
2022-10-17T20:30:01.784Z,18.55
2022-10-17T20:32:04.707Z,18.54
2022-10-17T20:34:07.582Z,18.55
2022-10-17T20:36:11.750Z,18.53
2022-10-17T20:38:14.702Z,18.52
2022-10-17T20:40:34.056Z,18.51
2022-10-17T20:42:39.388Z,18.49
2022-10-17T20:44:42.226Z,18.46
2022-10-17T20:46:57.637Z,18.46
2022-10-17T20:49:05.159Z,18.43
2022-10-17T20:51:08.668Z,18.41
2022-10-17T20:53:35.594Z,18.41
2022-10-17T20:55:34.911Z,18.39
2022-10-17T20:57:39.013Z,18.38
2022-10-17T20:59:41.810Z,18.35
2022-10-17T21:01:46.104Z,18.35
2022-10-17T21:03:49.315Z,18.34
2022-10-17T21:05:52.128Z,18.33
2022-10-17T21:07:54.893Z,18.31
2022-10-17T21:10:00.341Z,18.32
2022-10-17T21:12:10.372Z,18.30
2022-10-17T21:14:16.606Z,18.27
2022-10-17T21:16:20.236Z,18.23
2022-10-17T21:18:23.003Z,18.20
2022-10-17T21:20:25.740Z,18.20
2022-10-17T21:22:28.852Z,18.19
2022-10-17T21:24:32.161Z,18.20
2022-10-17T21:26:37.061Z,18.20
2022-10-17T21:28:40.233Z,18.22
2022-10-17T21:30:44.350Z,18.24
2022-10-17T21:32:51.488Z,18.17
2022-10-17T21:34:54.667Z,18.18
2022-10-17T21:36:57.440Z,18.17
2022-10-17T21:39:00.196Z,18.14
2022-10-17T21:41:03.416Z,18.12
2022-10-17T21:43:06.189Z,18.10
2022-10-17T21:45:15.105Z,18.08
2022-10-17T21:47:22.273Z,18.08
2022-10-17T21:49:26.689Z,18.05
2022-10-17T21:51:29.935Z,18.00
2022-10-17T21:53:33.356Z,18.02
2022-10-17T21:55:37.156Z,18.04
2022-10-17T21:57:39.925Z,18.04
2022-10-17T21:59:42.655Z,18.03
2022-10-17T22:01:46.714Z,18.00
2022-10-17T22:03:52.933Z,18.00
2022-10-17T22:06:07.072Z,17.98
2022-10-17T22:08:18.392Z,17.99
2022-10-17T22:10:21.185Z,18.02
2022-10-17T22:12:23.916Z,18.02
2022-10-17T22:14:28.030Z,18.04
2022-10-17T22:16:30.800Z,18.03
2022-10-17T22:18:34.043Z,18.02
2022-10-17T22:20:38.175Z,18.04
2022-10-17T22:22:40.912Z,18.02
2022-10-17T22:24:43.675Z,18.01
2022-10-17T22:26:47.234Z,18.02
2022-10-17T22:28:50.084Z,18.01
2022-10-17T22:30:53.173Z,18.02
2022-10-17T22:32:55.945Z,18.01
2022-10-17T22:34:58.737Z,17.98
2022-10-17T22:37:02.886Z,17.97
2022-10-17T22:39:06.100Z,17.93
2022-10-17T22:41:09.232Z,17.93
2022-10-17T22:43:12.140Z,17.93
2022-10-17T22:45:14.994Z,17.93
2022-10-17T22:47:17.758Z,17.93
2022-10-17T22:49:20.519Z,17.94
2022-10-17T22:53:29.658Z,17.90
2022-10-17T22:55:33.460Z,17.90
2022-10-17T22:57:36.598Z,17.90
2022-10-17T22:59:39.356Z,17.89
2022-10-17T23:01:42.218Z,17.86
2022-10-17T23:03:45.671Z,17.85
2022-10-17T23:05:48.747Z,17.81
2022-10-17T23:07:51.526Z,17.79
2022-10-17T23:09:55.633Z,17.78
2022-10-17T23:11:58.416Z,17.77
2022-10-17T23:14:01.150Z,17.78
2022-10-17T23:16:04.769Z,17.78
2022-10-17T23:18:07.642Z,17.73
2022-10-17T23:20:10.960Z,17.70
2022-10-17T23:22:13.734Z,17.67
2022-10-17T23:24:16.556Z,17.68
2022-10-17T23:26:20.703Z,17.67
2022-10-17T23:28:23.510Z,17.60
2022-10-17T23:30:26.891Z,17.57
2022-10-17T23:32:29.865Z,17.56
2022-10-17T23:34:32.823Z,17.57
2022-10-17T23:36:35.706Z,17.60
2022-10-17T23:38:38.652Z,17.63
2022-10-17T23:40:41.991Z,17.63
2022-10-17T23:42:46.213Z,17.67
2022-10-17T23:44:49.018Z,17.66
2022-10-17T23:46:51.768Z,17.67
2022-10-17T23:48:54.470Z,17.66
2022-10-17T23:50:57.668Z,17.67
2022-10-17T23:53:00.438Z,17.66
2022-10-17T23:55:03.203Z,17.63
2022-10-17T23:57:05.947Z,17.60
2022-10-17T23:59:10.778Z,17.60
